sensor_id;sensor_type;location;lat;lon;timestamp;temperature;humidity
41344;DHT22;27089;50.022;7.604;2023-10-31T00:00:58;11.00;99.90
41344;DHT22;27089;50.022;7.604;2023-10-31T00:03:25;11.00;99.90
41344;DHT22;27089;50.022;7.604;2023-10-31T00:05:52;11.00;99.90
41344;DHT22;27089;50.022;7.604;2023-10-31T00:08:19;11.00;99.90
41344;DHT22;27089;50.022;7.604;2023-10-31T00:10:45;10.90;99.90
41344;DHT22;27089;50.022;7.604;2023-10-31T00:13:12;10.90;99.90
41344;DHT22;27089;50.022;7.604;2023-10-31T00:15:39;10.90;99.90
41344;DHT22;27089;50.022;7.604;2023-10-31T00:18:08;10.80;99.90
41344;DHT22;27089;50.022;7.604;2023-10-31T00:20:35;10.80;99.90
41344;DHT22;27089;50.022;7.604;2023-10-31T00:23:02;10.80;99.90
41344;DHT22;27089;50.022;7.604;2023-10-31T00:25:29;10.80;99.90
41344;DHT22;27089;50.022;7.604;2023-10-31T00:27:56;10.80;99.90
41344;DHT22;27089;50.022;7.604;2023-10-31T00:30:23;10.70;99.90
41344;DHT22;27089;50.022;7.604;2023-10-31T00:32:50;10.70;99.90
41344;DHT22;27089;50.022;7.604;2023-10-31T00:35:18;10.70;99.90
41344;DHT22;27089;50.022;7.604;2023-10-31T00:37:45;10.60;99.90
41344;DHT22;27089;50.022;7.604;2023-10-31T00:40:12;10.50;99.90
41344;DHT22;27089;50.022;7.604;2023-10-31T00:42:42;10.40;99.90
41344;DHT22;27089;50.022;7.604;2023-10-31T00:45:09;10.30;99.90
41344;DHT22;27089;50.022;7.604;2023-10-31T00:47:36;10.30;99.90
41344;DHT22;27089;50.022;7.604;2023-10-31T00:50:04;10.40;99.90
41344;DHT22;27089;50.022;7.604;2023-10-31T00:52:32;10.40;99.90
41344;DHT22;27089;50.022;7.604;2023-10-31T00:54:59;10.40;99.90
41344;DHT22;27089;50.022;7.604;2023-10-31T00:57:26;10.40;99.90
41344;DHT22;27089;50.022;7.604;2023-10-31T00:59:53;10.40;99.90
41344;DHT22;27089;50.022;7.604;2023-10-31T01:02:20;10.40;99.90
41344;DHT22;27089;50.022;7.604;2023-10-31T01:04:47;10.40;99.90
41344;DHT22;27089;50.022;7.604;2023-10-31T01:07:14;10.40;99.90
41344;DHT22;27089;50.022;7.604;2023-10-31T01:09:44;10.40;99.90
41344;DHT22;27089;50.022;7.604;2023-10-31T01:12:11;10.40;99.90
41344;DHT22;27089;50.022;7.604;2023-10-31T01:14:38;10.40;99.90
41344;DHT22;27089;50.022;7.604;2023-10-31T01:17:05;10.40;99.90
41344;DHT22;27089;50.022;7.604;2023-10-31T01:19:32;10.40;99.90
41344;DHT22;27089;50.022;7.604;2023-10-31T01:21:59;10.30;99.90
41344;DHT22;27089;50.022;7.604;2023-10-31T01:24:26;10.30;99.90
41344;DHT22;27089;50.022;7.604;2023-10-31T01:26:55;10.30;99.90
41344;DHT22;27089;50.022;7.604;2023-10-31T01:29:22;10.40;99.90
41344;DHT22;27089;50.022;7.604;2023-10-31T01:31:49;10.40;99.90
41344;DHT22;27089;50.022;7.604;2023-10-31T01:34:16;10.40;99.90
41344;DHT22;27089;50.022;7.604;2023-10-31T01:36:43;10.40;99.90
41344;DHT22;27089;50.022;7.604;2023-10-31T01:39:09;10.40;99.90
41344;DHT22;27089;50.022;7.604;2023-10-31T01:41:36;10.40;99.90
41344;DHT22;27089;50.022;7.604;2023-10-31T01:44:05;10.40;99.90
41344;DHT22;27089;50.022;7.604;2023-10-31T01:46:32;10.40;99.90
41344;DHT22;27089;50.022;7.604;2023-10-31T01:48:59;10.40;99.90
41344;DHT22;27089;50.022;7.604;2023-10-31T01:51:27;10.40;99.90
41344;DHT22;27089;50.022;7.604;2023-10-31T01:53:55;10.40;99.90
41344;DHT22;27089;50.022;7.604;2023-10-31T01:56:22;10.40;99.90
41344;DHT22;27089;50.022;7.604;2023-10-31T01:58:50;10.40;99.90
41344;DHT22;27089;50.022;7.604;2023-10-31T02:01:18;10.40;99.90
41344;DHT22;27089;50.022;7.604;2023-10-31T02:03:45;10.30;99.90
41344;DHT22;27089;50.022;7.604;2023-10-31T02:06:12;10.30;99.90
41344;DHT22;27089;50.022;7.604;2023-10-31T02:08:40;10.30;99.90
41344;DHT22;27089;50.022;7.604;2023-10-31T02:11:07;10.30;99.90
41344;DHT22;27089;50.022;7.604;2023-10-31T02:13:36;10.30;99.90
41344;DHT22;27089;50.022;7.604;2023-10-31T02:16:04;10.30;99.90
41344;DHT22;27089;50.022;7.604;2023-10-31T02:18:32;10.40;99.90
41344;DHT22;27089;50.022;7.604;2023-10-31T02:20:59;10.40;99.90
41344;DHT22;27089;50.022;7.604;2023-10-31T02:23:28;10.30;99.90
41344;DHT22;27089;50.022;7.604;2023-10-31T02:25:55;10.30;99.90
41344;DHT22;27089;50.022;7.604;2023-10-31T02:28:22;10.30;99.90
41344;DHT22;27089;50.022;7.604;2023-10-31T02:30:53;10.30;99.90
41344;DHT22;27089;50.022;7.604;2023-10-31T02:33:20;10.20;99.90
41344;DHT22;27089;50.022;7.604;2023-10-31T02:35:47;10.20;99.90
41344;DHT22;27089;50.022;7.604;2023-10-31T02:38:14;10.20;99.90
41344;DHT22;27089;50.022;7.604;2023-10-31T02:40:42;10.20;99.90
41344;DHT22;27089;50.022;7.604;2023-10-31T02:43:09;10.20;99.90
41344;DHT22;27089;50.022;7.604;2023-10-31T02:45:36;10.10;99.90
41344;DHT22;27089;50.022;7.604;2023-10-31T02:48:03;10.10;99.90
41344;DHT22;27089;50.022;7.604;2023-10-31T02:50:30;10.00;99.90
41344;DHT22;27089;50.022;7.604;2023-10-31T02:52:57;9.90;99.90
41344;DHT22;27089;50.022;7.604;2023-10-31T02:55:24;9.70;99.90
41344;DHT22;27089;50.022;7.604;2023-10-31T02:57:52;9.60;99.90
41344;DHT22;27089;50.022;7.604;2023-10-31T03:00:19;9.60;99.90
41344;DHT22;27089;50.022;7.604;2023-10-31T03:02:46;9.60;99.90
41344;DHT22;27089;50.022;7.604;2023-10-31T03:05:13;9.60;99.90
41344;DHT22;27089;50.022;7.604;2023-10-31T03:07:40;9.60;99.90
41344;DHT22;27089;50.022;7.604;2023-10-31T03:10:07;9.60;99.90
41344;DHT22;27089;50.022;7.604;2023-10-31T03:12:34;9.70;99.90
41344;DHT22;27089;50.022;7.604;2023-10-31T03:15:03;9.70;99.90
41344;DHT22;27089;50.022;7.604;2023-10-31T03:17:30;9.80;99.90
41344;DHT22;27089;50.022;7.604;2023-10-31T03:19:57;9.90;99.90
41344;DHT22;27089;50.022;7.604;2023-10-31T03:22:24;9.90;99.90
41344;DHT22;27089;50.022;7.604;2023-10-31T03:24:51;9.90;99.90
41344;DHT22;27089;50.022;7.604;2023-10-31T03:27:18;9.90;99.90
41344;DHT22;27089;50.022;7.604;2023-10-31T03:29:45;9.90;99.90
41344;DHT22;27089;50.022;7.604;2023-10-31T03:32:14;10.00;99.90
41344;DHT22;27089;50.022;7.604;2023-10-31T03:34:41;9.90;99.90
41344;DHT22;27089;50.022;7.604;2023-10-31T03:37:08;9.90;99.90
41344;DHT22;27089;50.022;7.604;2023-10-31T03:39:35;9.90;99.90
41344;DHT22;27089;50.022;7.604;2023-10-31T03:42:02;9.90;99.90
41344;DHT22;27089;50.022;7.604;2023-10-31T03:44:30;9.90;99.90
41344;DHT22;27089;50.022;7.604;2023-10-31T03:46:57;9.80;99.90
41344;DHT22;27089;50.022;7.604;2023-10-31T03:49:26;9.80;99.90
41344;DHT22;27089;50.022;7.604;2023-10-31T03:51:52;9.80;99.90
41344;DHT22;27089;50.022;7.604;2023-10-31T03:54:19;9.90;99.90
41344;DHT22;27089;50.022;7.604;2023-10-31T03:56:46;9.90;99.90
41344;DHT22;27089;50.022;7.604;2023-10-31T03:59:14;9.90;99.90
41344;DHT22;27089;50.022;7.604;2023-10-31T04:01:42;9.90;99.90
41344;DHT22;27089;50.022;7.604;2023-10-31T04:04:09;9.90;99.90
41344;DHT22;27089;50.022;7.604;2023-10-31T04:06:37;9.90;99.90
41344;DHT22;27089;50.022;7.604;2023-10-31T04:09:06;9.80;99.90
41344;DHT22;27089;50.022;7.604;2023-10-31T04:11:33;9.80;99.90
41344;DHT22;27089;50.022;7.604;2023-10-31T04:14:00;9.90;99.90
41344;DHT22;27089;50.022;7.604;2023-10-31T04:16:27;9.90;99.90
41344;DHT22;27089;50.022;7.604;2023-10-31T04:18:54;9.80;99.90
41344;DHT22;27089;50.022;7.604;2023-10-31T04:21:21;9.80;99.90
41344;DHT22;27089;50.022;7.604;2023-10-31T04:23:49;9.80;99.90
41344;DHT22;27089;50.022;7.604;2023-10-31T04:26:16;9.80;99.90
41344;DHT22;27089;50.022;7.604;2023-10-31T04:28:43;9.80;99.90
41344;DHT22;27089;50.022;7.604;2023-10-31T04:31:10;9.80;99.90
41344;DHT22;27089;50.022;7.604;2023-10-31T04:33:37;9.80;99.90
41344;DHT22;27089;50.022;7.604;2023-10-31T04:36:04;9.80;99.90
41344;DHT22;27089;50.022;7.604;2023-10-31T04:38:31;9.80;99.90
41344;DHT22;27089;50.022;7.604;2023-10-31T04:41:00;9.70;99.90
41344;DHT22;27089;50.022;7.604;2023-10-31T04:43:27;9.70;99.90
41344;DHT22;27089;50.022;7.604;2023-10-31T04:45:54;9.80;99.90
41344;DHT22;27089;50.022;7.604;2023-10-31T04:48:21;9.70;99.90
41344;DHT22;27089;50.022;7.604;2023-10-31T04:50:48;9.70;99.90
41344;DHT22;27089;50.022;7.604;2023-10-31T04:53:14;9.70;99.90
41344;DHT22;27089;50.022;7.604;2023-10-31T04:55:41;9.70;99.90
41344;DHT22;27089;50.022;7.604;2023-10-31T04:58:10;9.60;99.90
41344;DHT22;27089;50.022;7.604;2023-10-31T05:00:37;9.60;99.90
41344;DHT22;27089;50.022;7.604;2023-10-31T05:03:04;9.60;99.90
41344;DHT22;27089;50.022;7.604;2023-10-31T05:05:30;9.60;99.90
41344;DHT22;27089;50.022;7.604;2023-10-31T05:07:57;9.60;99.90
41344;DHT22;27089;50.022;7.604;2023-10-31T05:10:24;9.60;99.90
41344;DHT22;27089;50.022;7.604;2023-10-31T05:12:51;9.60;99.90
41344;DHT22;27089;50.022;7.604;2023-10-31T05:15:21;9.60;99.90
41344;DHT22;27089;50.022;7.604;2023-10-31T05:17:48;9.60;99.90
41344;DHT22;27089;50.022;7.604;2023-10-31T05:20:15;9.60;99.90
41344;DHT22;27089;50.022;7.604;2023-10-31T05:22:42;9.60;99.90
41344;DHT22;27089;50.022;7.604;2023-10-31T05:25:09;9.60;99.90
41344;DHT22;27089;50.022;7.604;2023-10-31T05:27:35;9.60;99.90
41344;DHT22;27089;50.022;7.604;2023-10-31T05:30:03;9.60;99.90
41344;DHT22;27089;50.022;7.604;2023-10-31T05:32:31;9.60;99.90
41344;DHT22;27089;50.022;7.604;2023-10-31T05:34:58;9.60;99.90
41344;DHT22;27089;50.022;7.604;2023-10-31T05:37:26;9.60;99.90
41344;DHT22;27089;50.022;7.604;2023-10-31T05:39:53;9.60;99.90
41344;DHT22;27089;50.022;7.604;2023-10-31T05:42:19;9.50;99.90
41344;DHT22;27089;50.022;7.604;2023-10-31T05:44:46;9.50;99.90
41344;DHT22;27089;50.022;7.604;2023-10-31T05:47:14;9.50;99.90
41344;DHT22;27089;50.022;7.604;2023-10-31T05:49:44;9.50;99.90
41344;DHT22;27089;50.022;7.604;2023-10-31T05:52:11;9.40;99.90
41344;DHT22;27089;50.022;7.604;2023-10-31T05:54:37;9.40;99.90
41344;DHT22;27089;50.022;7.604;2023-10-31T05:57:04;9.40;99.90
41344;DHT22;27089;50.022;7.604;2023-10-31T05:59:31;9.40;99.90
41344;DHT22;27089;50.022;7.604;2023-10-31T06:01:58;9.50;99.90
41344;DHT22;27089;50.022;7.604;2023-10-31T06:04:25;9.40;99.90
41344;DHT22;27089;50.022;7.604;2023-10-31T06:06:53;9.50;99.90
41344;DHT22;27089;50.022;7.604;2023-10-31T06:09:20;9.50;99.90
41344;DHT22;27089;50.022;7.604;2023-10-31T06:11:47;9.50;99.90
41344;DHT22;27089;50.022;7.604;2023-10-31T06:14:14;9.50;99.90
41344;DHT22;27089;50.022;7.604;2023-10-31T06:16:47;9.50;99.90
41344;DHT22;27089;50.022;7.604;2023-10-31T06:19:14;9.50;99.90
41344;DHT22;27089;50.022;7.604;2023-10-31T06:21:41;9.50;99.90
41344;DHT22;27089;50.022;7.604;2023-10-31T06:24:10;9.50;99.90
41344;DHT22;27089;50.022;7.604;2023-10-31T06:26:37;9.50;99.90
41344;DHT22;27089;50.022;7.604;2023-10-31T06:29:05;9.60;99.90
41344;DHT22;27089;50.022;7.604;2023-10-31T06:31:32;9.50;99.90
41344;DHT22;27089;50.022;7.604;2023-10-31T06:33:58;9.60;99.90
41344;DHT22;27089;50.022;7.604;2023-10-31T06:36:25;9.60;99.90
41344;DHT22;27089;50.022;7.604;2023-10-31T06:38:53;9.60;99.90
41344;DHT22;27089;50.022;7.604;2023-10-31T06:41:21;9.60;99.90
41344;DHT22;27089;50.022;7.604;2023-10-31T06:43:48;9.60;99.90
41344;DHT22;27089;50.022;7.604;2023-10-31T06:46:15;9.60;99.90
41344;DHT22;27089;50.022;7.604;2023-10-31T06:48:42;9.60;99.90
41344;DHT22;27089;50.022;7.604;2023-10-31T06:51:09;9.60;99.90
41344;DHT22;27089;50.022;7.604;2023-10-31T06:53:36;9.70;99.90
41344;DHT22;27089;50.022;7.604;2023-10-31T06:56:03;9.70;99.90
41344;DHT22;27089;50.022;7.604;2023-10-31T06:58:32;9.70;99.90
41344;DHT22;27089;50.022;7.604;2023-10-31T07:00:58;9.70;99.90
41344;DHT22;27089;50.022;7.604;2023-10-31T07:03:25;9.70;99.90
41344;DHT22;27089;50.022;7.604;2023-10-31T07:05:52;9.70;99.90
41344;DHT22;27089;50.022;7.604;2023-10-31T07:08:21;9.80;99.90
41344;DHT22;27089;50.022;7.604;2023-10-31T07:10:48;9.80;99.90
41344;DHT22;27089;50.022;7.604;2023-10-31T07:13:15;9.80;99.90
41344;DHT22;27089;50.022;7.604;2023-10-31T07:15:44;9.80;99.90
41344;DHT22;27089;50.022;7.604;2023-10-31T07:18:12;9.80;99.90
41344;DHT22;27089;50.022;7.604;2023-10-31T07:20:39;9.80;99.90
41344;DHT22;27089;50.022;7.604;2023-10-31T07:23:06;9.90;99.90
41344;DHT22;27089;50.022;7.604;2023-10-31T07:25:33;9.90;99.90
41344;DHT22;27089;50.022;7.604;2023-10-31T07:28:00;9.90;99.90
41344;DHT22;27089;50.022;7.604;2023-10-31T07:30:26;9.90;99.90
41344;DHT22;27089;50.022;7.604;2023-10-31T07:32:55;9.90;99.90
41344;DHT22;27089;50.022;7.604;2023-10-31T07:35:22;9.90;99.90
41344;DHT22;27089;50.022;7.604;2023-10-31T07:37:49;10.00;99.90
41344;DHT22;27089;50.022;7.604;2023-10-31T07:40:15;10.00;99.90
41344;DHT22;27089;50.022;7.604;2023-10-31T07:42:42;10.00;99.90
41344;DHT22;27089;50.022;7.604;2023-10-31T07:45:10;10.00;99.90
41344;DHT22;27089;50.022;7.604;2023-10-31T07:47:37;10.00;99.90
41344;DHT22;27089;50.022;7.604;2023-10-31T07:50:06;9.90;99.90
41344;DHT22;27089;50.022;7.604;2023-10-31T07:52:33;9.90;99.90
41344;DHT22;27089;50.022;7.604;2023-10-31T07:55:00;10.00;99.90
41344;DHT22;27089;50.022;7.604;2023-10-31T07:57:27;10.00;99.90
41344;DHT22;27089;50.022;7.604;2023-10-31T07:59:54;10.00;99.90
41344;DHT22;27089;50.022;7.604;2023-10-31T08:02:21;10.00;99.90
41344;DHT22;27089;50.022;7.604;2023-10-31T08:04:48;10.00;99.90
41344;DHT22;27089;50.022;7.604;2023-10-31T08:07:16;10.00;99.90
41344;DHT22;27089;50.022;7.604;2023-10-31T08:09:43;10.00;99.90
41344;DHT22;27089;50.022;7.604;2023-10-31T08:12:10;10.10;99.90
41344;DHT22;27089;50.022;7.604;2023-10-31T08:14:37;10.00;99.90
41344;DHT22;27089;50.022;7.604;2023-10-31T08:17:04;10.00;99.90
41344;DHT22;27089;50.022;7.604;2023-10-31T08:19:31;10.00;99.90
41344;DHT22;27089;50.022;7.604;2023-10-31T08:21:58;10.00;99.90
41344;DHT22;27089;50.022;7.604;2023-10-31T08:24:26;10.00;99.90
41344;DHT22;27089;50.022;7.604;2023-10-31T08:26:53;10.00;99.90
41344;DHT22;27089;50.022;7.604;2023-10-31T08:29:20;10.00;99.90
41344;DHT22;27089;50.022;7.604;2023-10-31T08:31:47;10.10;99.90
41344;DHT22;27089;50.022;7.604;2023-10-31T08:34:14;10.20;99.90
41344;DHT22;27089;50.022;7.604;2023-10-31T08:36:41;10.20;99.90
41344;DHT22;27089;50.022;7.604;2023-10-31T08:39:08;10.30;99.90
41344;DHT22;27089;50.022;7.604;2023-10-31T08:41:36;10.40;99.90
41344;DHT22;27089;50.022;7.604;2023-10-31T08:44:05;10.50;99.90
41344;DHT22;27089;50.022;7.604;2023-10-31T08:46:33;10.50;99.90
41344;DHT22;27089;50.022;7.604;2023-10-31T08:49:00;10.60;99.90
41344;DHT22;27089;50.022;7.604;2023-10-31T08:51:27;10.60;99.90
41344;DHT22;27089;50.022;7.604;2023-10-31T08:53:54;10.70;99.90
41344;DHT22;27089;50.022;7.604;2023-10-31T08:56:21;10.70;99.90
41344;DHT22;27089;50.022;7.604;2023-10-31T08:58:49;10.80;99.90
41344;DHT22;27089;50.022;7.604;2023-10-31T09:01:16;10.80;99.90
41344;DHT22;27089;50.022;7.604;2023-10-31T09:03:43;10.90;99.90
41344;DHT22;27089;50.022;7.604;2023-10-31T09:06:10;11.00;99.90
41344;DHT22;27089;50.022;7.604;2023-10-31T09:08:37;11.10;99.90
41344;DHT22;27089;50.022;7.604;2023-10-31T09:11:04;11.20;99.90
41344;DHT22;27089;50.022;7.604;2023-10-31T09:13:31;11.20;99.90
41344;DHT22;27089;50.022;7.604;2023-10-31T09:16:00;11.20;99.90
41344;DHT22;27089;50.022;7.604;2023-10-31T09:18:27;11.30;99.90
41344;DHT22;27089;50.022;7.604;2023-10-31T09:20:54;11.30;99.90
41344;DHT22;27089;50.022;7.604;2023-10-31T09:23:21;11.50;99.90
41344;DHT22;27089;50.022;7.604;2023-10-31T09:25:48;11.60;99.90
41344;DHT22;27089;50.022;7.604;2023-10-31T09:28:15;11.70;99.90
41344;DHT22;27089;50.022;7.604;2023-10-31T09:30:42;11.70;99.90
41344;DHT22;27089;50.022;7.604;2023-10-31T09:33:10;11.80;99.90
41344;DHT22;27089;50.022;7.604;2023-10-31T09:35:38;11.80;99.90
41344;DHT22;27089;50.022;7.604;2023-10-31T09:38:05;11.80;99.90
41344;DHT22;27089;50.022;7.604;2023-10-31T09:40:32;11.90;99.90
41344;DHT22;27089;50.022;7.604;2023-10-31T09:42:59;12.00;99.90
41344;DHT22;27089;50.022;7.604;2023-10-31T09:45:26;12.00;99.90
41344;DHT22;27089;50.022;7.604;2023-10-31T09:47:53;12.10;99.90
41344;DHT22;27089;50.022;7.604;2023-10-31T09:50:22;12.20;99.90
41344;DHT22;27089;50.022;7.604;2023-10-31T09:52:49;12.20;99.90
41344;DHT22;27089;50.022;7.604;2023-10-31T09:55:17;12.20;99.90
41344;DHT22;27089;50.022;7.604;2023-10-31T09:57:45;12.20;99.90
41344;DHT22;27089;50.022;7.604;2023-10-31T10:00:12;12.20;99.90
41344;DHT22;27089;50.022;7.604;2023-10-31T10:02:40;12.40;99.90
41344;DHT22;27089;50.022;7.604;2023-10-31T10:05:09;12.40;99.90
41344;DHT22;27089;50.022;7.604;2023-10-31T10:07:41;12.40;99.90
41344;DHT22;27089;50.022;7.604;2023-10-31T10:10:10;12.40;99.90
41344;DHT22;27089;50.022;7.604;2023-10-31T10:12:37;12.40;99.90
41344;DHT22;27089;50.022;7.604;2023-10-31T10:15:05;12.40;99.90
41344;DHT22;27089;50.022;7.604;2023-10-31T10:17:32;12.40;99.90
41344;DHT22;27089;50.022;7.604;2023-10-31T10:20:09;12.50;99.90
41344;DHT22;27089;50.022;7.604;2023-10-31T10:22:39;12.60;99.90
41344;DHT22;27089;50.022;7.604;2023-10-31T10:25:08;12.60;99.90
41344;DHT22;27089;50.022;7.604;2023-10-31T10:27:37;12.70;99.90
41344;DHT22;27089;50.022;7.604;2023-10-31T10:30:05;12.80;99.90
41344;DHT22;27089;50.022;7.604;2023-10-31T10:32:32;12.90;99.90
41344;DHT22;27089;50.022;7.604;2023-10-31T10:34:59;13.00;99.90
41344;DHT22;27089;50.022;7.604;2023-10-31T10:37:29;13.10;99.90
41344;DHT22;27089;50.022;7.604;2023-10-31T10:39:58;13.30;99.90
41344;DHT22;27089;50.022;7.604;2023-10-31T10:42:31;13.60;99.90
41344;DHT22;27089;50.022;7.604;2023-10-31T10:45:02;13.90;99.90
41344;DHT22;27089;50.022;7.604;2023-10-31T10:47:30;14.20;99.90
41344;DHT22;27089;50.022;7.604;2023-10-31T10:49:59;14.50;99.90
41344;DHT22;27089;50.022;7.604;2023-10-31T10:52:29;14.80;99.90
41344;DHT22;27089;50.022;7.604;2023-10-31T10:55:03;15.10;99.90
41344;DHT22;27089;50.022;7.604;2023-10-31T10:57:37;15.60;99.90
41344;DHT22;27089;50.022;7.604;2023-10-31T11:00:06;15.90;99.90
41344;DHT22;27089;50.022;7.604;2023-10-31T11:02:39;15.90;99.90
41344;DHT22;27089;50.022;7.604;2023-10-31T11:05:07;15.60;99.90
41344;DHT22;27089;50.022;7.604;2023-10-31T11:07:34;15.50;99.90
41344;DHT22;27089;50.022;7.604;2023-10-31T11:10:04;15.40;99.90
41344;DHT22;27089;50.022;7.604;2023-10-31T11:12:32;15.30;99.90
41344;DHT22;27089;50.022;7.604;2023-10-31T11:14:59;15.40;99.90
41344;DHT22;27089;50.022;7.604;2023-10-31T11:17:29;15.40;99.90
41344;DHT22;27089;50.022;7.604;2023-10-31T11:19:58;15.40;99.90
41344;DHT22;27089;50.022;7.604;2023-10-31T11:22:25;15.30;99.90
41344;DHT22;27089;50.022;7.604;2023-10-31T11:25:06;15.30;99.90
41344;DHT22;27089;50.022;7.604;2023-10-31T11:27:34;15.30;99.90
41344;DHT22;27089;50.022;7.604;2023-10-31T11:30:05;15.30;99.90
41344;DHT22;27089;50.022;7.604;2023-10-31T11:32:32;15.20;99.90
41344;DHT22;27089;50.022;7.604;2023-10-31T11:35:00;15.00;99.90
41344;DHT22;27089;50.022;7.604;2023-10-31T11:37:32;14.70;99.90
41344;DHT22;27089;50.022;7.604;2023-10-31T11:40:21;14.40;99.90
41344;DHT22;27089;50.022;7.604;2023-10-31T11:42:49;14.30;99.90
41344;DHT22;27089;50.022;7.604;2023-10-31T11:45:31;14.30;99.90
41344;DHT22;27089;50.022;7.604;2023-10-31T11:47:58;14.20;99.90
41344;DHT22;27089;50.022;7.604;2023-10-31T11:50:25;14.40;99.90
41344;DHT22;27089;50.022;7.604;2023-10-31T11:53:02;14.60;99.90
41344;DHT22;27089;50.022;7.604;2023-10-31T11:55:33;14.60;99.90
41344;DHT22;27089;50.022;7.604;2023-10-31T11:58:16;14.40;99.90
41344;DHT22;27089;50.022;7.604;2023-10-31T12:00:44;14.10;99.90
41344;DHT22;27089;50.022;7.604;2023-10-31T12:03:11;14.00;99.90
41344;DHT22;27089;50.022;7.604;2023-10-31T12:05:38;13.90;99.90
41344;DHT22;27089;50.022;7.604;2023-10-31T12:08:05;13.80;99.90
41344;DHT22;27089;50.022;7.604;2023-10-31T12:10:34;13.60;99.90
41344;DHT22;27089;50.022;7.604;2023-10-31T12:13:00;13.50;99.90
41344;DHT22;27089;50.022;7.604;2023-10-31T12:15:27;13.40;99.90
41344;DHT22;27089;50.022;7.604;2023-10-31T12:17:58;13.20;99.90
41344;DHT22;27089;50.022;7.604;2023-10-31T12:20:25;13.10;99.90
41344;DHT22;27089;50.022;7.604;2023-10-31T12:23:02;13.00;99.90
41344;DHT22;27089;50.022;7.604;2023-10-31T12:25:29;13.10;99.90
41344;DHT22;27089;50.022;7.604;2023-10-31T12:28:02;13.30;99.90
41344;DHT22;27089;50.022;7.604;2023-10-31T12:30:29;13.40;99.90
41344;DHT22;27089;50.022;7.604;2023-10-31T12:32:56;13.60;99.90
41344;DHT22;27089;50.022;7.604;2023-10-31T12:35:26;13.70;99.90
41344;DHT22;27089;50.022;7.604;2023-10-31T12:37:53;13.80;99.90
41344;DHT22;27089;50.022;7.604;2023-10-31T12:40:22;13.80;99.90
41344;DHT22;27089;50.022;7.604;2023-10-31T12:42:49;13.80;99.90
41344;DHT22;27089;50.022;7.604;2023-10-31T12:45:19;13.60;99.90
41344;DHT22;27089;50.022;7.604;2023-10-31T12:48:00;13.50;99.90
41344;DHT22;27089;50.022;7.604;2023-10-31T12:50:27;13.30;99.90
41344;DHT22;27089;50.022;7.604;2023-10-31T12:52:55;13.40;99.90
41344;DHT22;27089;50.022;7.604;2023-10-31T12:55:25;13.40;99.90
41344;DHT22;27089;50.022;7.604;2023-10-31T12:57:52;13.40;99.90
41344;DHT22;27089;50.022;7.604;2023-10-31T13:00:22;13.30;99.90
41344;DHT22;27089;50.022;7.604;2023-10-31T13:03:00;13.20;99.90
41344;DHT22;27089;50.022;7.604;2023-10-31T13:05:28;13.30;99.90
41344;DHT22;27089;50.022;7.604;2023-10-31T13:07:56;13.10;99.90
41344;DHT22;27089;50.022;7.604;2023-10-31T13:10:24;13.00;99.90
41344;DHT22;27089;50.022;7.604;2023-10-31T13:12:52;12.90;99.90
41344;DHT22;27089;50.022;7.604;2023-10-31T13:15:22;12.80;99.90
41344;DHT22;27089;50.022;7.604;2023-10-31T13:17:50;12.80;99.90
41344;DHT22;27089;50.022;7.604;2023-10-31T13:20:18;12.70;99.90
41344;DHT22;27089;50.022;7.604;2023-10-31T13:22:46;12.70;99.90
41344;DHT22;27089;50.022;7.604;2023-10-31T13:25:14;12.60;99.90
41344;DHT22;27089;50.022;7.604;2023-10-31T13:27:43;12.50;99.90
41344;DHT22;27089;50.022;7.604;2023-10-31T13:30:11;12.40;99.90
41344;DHT22;27089;50.022;7.604;2023-10-31T13:32:40;12.40;99.90
41344;DHT22;27089;50.022;7.604;2023-10-31T13:35:07;12.50;99.90
41344;DHT22;27089;50.022;7.604;2023-10-31T13:37:35;12.60;99.90
41344;DHT22;27089;50.022;7.604;2023-10-31T13:40:02;12.70;99.90
41344;DHT22;27089;50.022;7.604;2023-10-31T13:42:29;12.80;99.90
41344;DHT22;27089;50.022;7.604;2023-10-31T13:44:56;12.80;99.90
41344;DHT22;27089;50.022;7.604;2023-10-31T13:47:23;12.70;99.90
41344;DHT22;27089;50.022;7.604;2023-10-31T13:49:51;12.60;99.90
41344;DHT22;27089;50.022;7.604;2023-10-31T13:52:18;12.60;99.90
41344;DHT22;27089;50.022;7.604;2023-10-31T13:54:45;12.60;99.90
41344;DHT22;27089;50.022;7.604;2023-10-31T13:57:12;12.60;99.90
41344;DHT22;27089;50.022;7.604;2023-10-31T13:59:39;12.60;99.90
41344;DHT22;27089;50.022;7.604;2023-10-31T14:02:07;12.40;99.90
41344;DHT22;27089;50.022;7.604;2023-10-31T14:04:34;12.40;99.90
41344;DHT22;27089;50.022;7.604;2023-10-31T14:07:03;12.30;99.90
41344;DHT22;27089;50.022;7.604;2023-10-31T14:09:30;12.20;99.90
41344;DHT22;27089;50.022;7.604;2023-10-31T14:11:57;12.20;99.90
41344;DHT22;27089;50.022;7.604;2023-10-31T14:14:24;12.20;99.90
41344;DHT22;27089;50.022;7.604;2023-10-31T14:16:51;12.20;99.90
41344;DHT22;27089;50.022;7.604;2023-10-31T14:19:18;12.30;99.90
41344;DHT22;27089;50.022;7.604;2023-10-31T14:21:45;12.50;99.90
41344;DHT22;27089;50.022;7.604;2023-10-31T14:24:13;12.80;99.90
41344;DHT22;27089;50.022;7.604;2023-10-31T14:26:40;13.00;99.90
41344;DHT22;27089;50.022;7.604;2023-10-31T14:29:08;13.10;99.90
41344;DHT22;27089;50.022;7.604;2023-10-31T14:31:39;13.00;99.90
41344;DHT22;27089;50.022;7.604;2023-10-31T14:34:07;12.90;99.90
41344;DHT22;27089;50.022;7.604;2023-10-31T14:36:34;12.70;99.90
41344;DHT22;27089;50.022;7.604;2023-10-31T14:39:01;12.60;99.90
41344;DHT22;27089;50.022;7.604;2023-10-31T14:41:29;12.50;99.90
41344;DHT22;27089;50.022;7.604;2023-10-31T14:43:59;12.50;99.90
41344;DHT22;27089;50.022;7.604;2023-10-31T14:46:26;12.40;99.90
41344;DHT22;27089;50.022;7.604;2023-10-31T14:48:53;12.30;99.90
41344;DHT22;27089;50.022;7.604;2023-10-31T14:51:20;12.30;99.90
41344;DHT22;27089;50.022;7.604;2023-10-31T14:53:47;12.30;99.90
41344;DHT22;27089;50.022;7.604;2023-10-31T14:56:14;12.30;99.90
41344;DHT22;27089;50.022;7.604;2023-10-31T14:58:43;12.30;99.90
41344;DHT22;27089;50.022;7.604;2023-10-31T15:01:10;12.30;99.90
41344;DHT22;27089;50.022;7.604;2023-10-31T15:03:37;12.20;99.90
41344;DHT22;27089;50.022;7.604;2023-10-31T15:06:04;12.30;99.90
41344;DHT22;27089;50.022;7.604;2023-10-31T15:08:32;12.30;99.90
41344;DHT22;27089;50.022;7.604;2023-10-31T15:10:59;12.30;99.90
41344;DHT22;27089;50.022;7.604;2023-10-31T15:13:26;12.40;99.90
41344;DHT22;27089;50.022;7.604;2023-10-31T15:15:55;12.40;99.90
41344;DHT22;27089;50.022;7.604;2023-10-31T15:18:21;12.40;99.90
41344;DHT22;27089;50.022;7.604;2023-10-31T15:20:48;12.50;99.90
41344;DHT22;27089;50.022;7.604;2023-10-31T15:23:16;12.50;99.90
41344;DHT22;27089;50.022;7.604;2023-10-31T15:25:42;12.50;99.90
41344;DHT22;27089;50.022;7.604;2023-10-31T15:28:09;12.50;99.90
41344;DHT22;27089;50.022;7.604;2023-10-31T15:30:37;12.50;99.90
41344;DHT22;27089;50.022;7.604;2023-10-31T15:33:05;12.40;99.90
41344;DHT22;27089;50.022;7.604;2023-10-31T15:35:32;12.30;99.90
41344;DHT22;27089;50.022;7.604;2023-10-31T15:38:00;12.30;99.90